createdAt,value
2022-12-24T00:04:05.005Z,88.34
2022-12-24T00:09:10.324Z,88.13
2022-12-24T00:14:12.629Z,88.40
2022-12-24T00:19:14.934Z,88.24
2022-12-24T00:24:17.220Z,88.25
2022-12-24T00:29:19.779Z,88.33
2022-12-24T00:34:24.139Z,88.16
2022-12-24T00:39:26.746Z,88.27
2022-12-24T00:44:28.985Z,88.17
2022-12-24T00:49:31.161Z,88.22
2022-12-24T00:54:33.332Z,88.12
2022-12-24T00:59:35.586Z,88.30
2022-12-24T01:04:56.177Z,88.23
2022-12-24T01:09:58.389Z,88.04
2022-12-24T01:15:00.650Z,88.19
2022-12-24T01:20:04.445Z,88.25
2022-12-24T01:25:07.053Z,88.08
2022-12-24T01:30:10.287Z,88.16
2022-12-24T01:35:12.817Z,88.11
2022-12-24T01:40:37.410Z,88.07
2022-12-24T01:45:55.478Z,88.25
2022-12-24T01:51:05.878Z,88.36
2022-12-24T01:56:09.092Z,88.06
2022-12-24T02:01:11.504Z,87.99
2022-12-24T02:06:18.678Z,88.38
2022-12-24T02:11:22.955Z,88.05
2022-12-24T02:16:40.872Z,88.26
2022-12-24T02:21:53.047Z,88.22
2022-12-24T02:27:23.459Z,88.27
2022-12-24T02:32:36.055Z,87.95
2022-12-24T02:37:44.073Z,87.97
2022-12-24T02:42:51.056Z,88.13
2022-12-24T02:47:53.908Z,88.15
2022-12-24T02:52:56.172Z,88.26
2022-12-24T02:58:23.381Z,88.17
2022-12-24T03:03:39.680Z,88.19
2022-12-24T03:08:51.335Z,88.19
2022-12-24T03:13:54.879Z,87.99
2022-12-24T03:18:58.899Z,87.89
2022-12-24T03:24:01.243Z,87.87
2022-12-24T03:29:10.195Z,88.30
2022-12-24T03:34:13.441Z,88.13
2022-12-24T03:39:16.374Z,88.04
2022-12-24T03:44:18.651Z,88.14
2022-12-24T03:49:20.903Z,88.23
2022-12-24T03:54:23.104Z,87.95
2022-12-24T03:59:25.403Z,88.05
2022-12-24T04:04:27.757Z,88.20
2022-12-24T04:09:30.378Z,88.08
2022-12-24T04:14:32.595Z,88.17
2022-12-24T04:19:35.547Z,88.13
2022-12-24T04:24:37.759Z,88.10
2022-12-24T04:29:42.955Z,88.16
2022-12-24T04:34:45.158Z,88.18
2022-12-24T04:39:47.364Z,88.39
2022-12-24T04:44:49.615Z,88.24
2022-12-24T04:49:54.849Z,88.23
2022-12-24T04:54:57.105Z,88.19
2022-12-24T04:59:59.458Z,88.07
2022-12-24T05:05:01.735Z,88.06
2022-12-24T05:10:06.305Z,88.20
2022-12-24T05:15:08.829Z,88.20
2022-12-24T05:20:11.120Z,88.07
2022-12-24T05:25:31.782Z,88.22
2022-12-24T05:30:34.007Z,88.27
2022-12-24T05:35:36.263Z,88.15
2022-12-24T05:40:38.434Z,88.33
2022-12-24T05:45:40.779Z,88.32
2022-12-24T05:50:43.072Z,88.13
2022-12-24T05:55:45.257Z,88.13
2022-12-24T06:00:47.447Z,88.09
2022-12-24T06:05:49.682Z,88.26
2022-12-24T06:10:59.700Z,88.25
2022-12-24T06:16:04.032Z,88.22
2022-12-24T06:21:07.113Z,88.26
2022-12-24T06:26:11.390Z,88.28
2022-12-24T06:31:16.667Z,88.18
2022-12-24T06:36:24.178Z,88.13
2022-12-24T06:41:26.554Z,88.20
2022-12-24T06:46:28.894Z,88.02
2022-12-24T06:51:31.245Z,88.29
2022-12-24T06:56:33.567Z,88.38
2022-12-24T07:01:35.905Z,88.26
2022-12-24T07:06:38.196Z,88.62
2022-12-24T07:11:40.946Z,88.54
2022-12-24T07:16:44.390Z,88.46
2022-12-24T07:21:47.738Z,88.44
2022-12-24T07:26:49.965Z,88.50
2022-12-24T07:31:52.317Z,88.44
2022-12-24T07:36:54.554Z,88.51
2022-12-24T07:41:56.743Z,88.29
2022-12-24T07:47:00.095Z,88.14
2022-12-24T07:52:03.413Z,88.30
2022-12-24T07:57:05.658Z,88.12
2022-12-24T08:02:17.627Z,88.12
2022-12-24T08:07:20.621Z,88.19
2022-12-24T08:12:23.774Z,87.86
2022-12-24T08:17:31.858Z,88.00
2022-12-24T08:22:34.629Z,88.02
2022-12-24T08:27:37.036Z,87.86
2022-12-24T08:32:39.253Z,88.02
2022-12-24T08:37:41.457Z,88.00
2022-12-24T08:42:43.717Z,88.08
2022-12-24T08:47:46.152Z,88.10
2022-12-24T08:52:48.421Z,87.97
2022-12-24T08:57:51.674Z,87.92
2022-12-24T09:02:54.094Z,87.95
2022-12-24T09:07:56.523Z,87.98
2022-12-24T09:12:58.836Z,87.98
2022-12-24T09:18:01.808Z,88.02
2022-12-24T09:23:04.028Z,87.93
2022-12-24T09:28:06.227Z,87.99
2022-12-24T09:33:08.416Z,87.85
2022-12-24T09:38:10.613Z,87.97
2022-12-24T09:43:15.895Z,87.93
2022-12-24T09:48:21.802Z,87.80
2022-12-24T09:53:23.995Z,87.87
2022-12-24T09:58:34.285Z,88.03
2022-12-24T10:03:36.858Z,87.91
2022-12-24T10:09:11.114Z,87.69
2022-12-24T10:14:58.070Z,88.02
2022-12-24T10:20:19.190Z,87.62
2022-12-24T10:25:29.743Z,87.52
2022-12-24T10:30:32.207Z,87.68
2022-12-24T10:35:37.379Z,87.65
2022-12-24T10:40:55.072Z,87.73
2022-12-24T10:46:01.643Z,87.74
2022-12-24T10:51:08.047Z,87.65
2022-12-24T10:56:12.365Z,87.64
2022-12-24T11:01:14.897Z,87.61
2022-12-24T11:06:22.925Z,87.63
2022-12-24T11:11:25.257Z,87.68
2022-12-24T11:16:31.251Z,87.66
2022-12-24T11:21:40.021Z,87.74
2022-12-24T11:26:44.461Z,87.63
2022-12-24T11:31:47.381Z,87.54
2022-12-24T11:36:51.178Z,87.64
2022-12-24T11:41:54.300Z,87.78
2022-12-24T11:46:57.337Z,87.64
2022-12-24T11:52:18.594Z,87.64
2022-12-24T11:57:23.734Z,87.61
2022-12-24T12:02:29.495Z,87.80
2022-12-24T12:07:35.100Z,87.72
2022-12-24T12:12:42.390Z,87.76
2022-12-24T12:17:59.579Z,87.68
2022-12-24T12:23:22.797Z,87.63
2022-12-24T12:28:52.483Z,87.87
2022-12-24T12:34:12.211Z,87.75
2022-12-24T12:39:14.705Z,87.59
2022-12-24T12:44:22.853Z,87.83
2022-12-24T12:49:37.497Z,87.94
2022-12-24T12:55:24.763Z,87.97
2022-12-24T13:00:28.707Z,87.95
2022-12-24T13:06:00.801Z,87.89
2022-12-24T13:11:18.190Z,87.87
2022-12-24T13:16:33.348Z,87.90
2022-12-24T13:21:35.786Z,87.99
2022-12-24T13:26:41.425Z,87.89
2022-12-24T13:31:43.704Z,87.74
2022-12-24T13:37:06.362Z,88.10
2022-12-24T13:42:08.617Z,87.90
2022-12-24T13:47:13.960Z,88.02
2022-12-24T13:52:20.161Z,87.80
2022-12-24T13:57:41.101Z,87.94
2022-12-24T14:03:07.795Z,87.99
2022-12-24T14:08:13.843Z,87.89
2022-12-24T14:13:52.645Z,87.94
2022-12-24T14:19:24.431Z,87.90
2022-12-24T14:24:31.777Z,87.99
2022-12-24T14:29:43.346Z,87.84
2022-12-24T14:34:45.624Z,87.87
2022-12-24T14:39:57.129Z,88.11
2022-12-24T14:45:31.842Z,88.06
2022-12-24T14:50:49.251Z,88.00
2022-12-24T14:55:51.777Z,87.92
2022-12-24T15:01:15.533Z,88.01
2022-12-24T15:06:17.919Z,87.85
2022-12-24T15:11:22.158Z,87.99
2022-12-24T15:16:32.584Z,88.18
2022-12-24T15:21:41.871Z,88.21
2022-12-24T15:26:45.172Z,88.11
2022-12-24T15:31:55.338Z,87.96
2022-12-24T15:37:21.370Z,87.98
2022-12-24T15:42:24.686Z,88.04
2022-12-24T15:47:30.714Z,87.97
2022-12-24T15:52:39.680Z,87.95
2022-12-24T15:57:42.094Z,88.02
2022-12-24T16:02:45.593Z,87.76
2022-12-24T16:08:09.987Z,87.92
2022-12-24T16:13:19.880Z,87.82
2022-12-24T16:18:27.522Z,87.79
2022-12-24T16:23:49.452Z,87.96
2022-12-24T16:28:52.448Z,87.84
2022-12-24T16:33:56.241Z,87.70
2022-12-24T16:39:18.005Z,87.86
2022-12-24T16:44:20.332Z,87.79
2022-12-24T16:49:23.558Z,87.91
2022-12-24T16:54:27.894Z,87.74
2022-12-24T16:59:30.603Z,87.90
2022-12-24T17:04:35.402Z,87.84
2022-12-24T17:09:37.701Z,87.79
2022-12-24T17:14:40.232Z,87.65
2022-12-24T17:19:42.462Z,87.63
2022-12-24T17:24:44.998Z,87.55
2022-12-24T17:29:47.639Z,87.67
2022-12-24T17:34:49.873Z,87.49
2022-12-24T17:39:52.163Z,87.50
2022-12-24T17:44:54.499Z,87.70
2022-12-24T17:49:59.569Z,87.65
2022-12-24T17:55:04.809Z,87.96
2022-12-24T18:00:07.963Z,87.92
2022-12-24T18:05:10.388Z,87.63
2022-12-24T18:10:12.677Z,87.63
2022-12-24T18:15:19.556Z,87.72
2022-12-24T18:20:22.630Z,87.65
2022-12-24T18:25:24.961Z,87.50
2022-12-24T18:30:28.007Z,87.63
2022-12-24T18:35:30.494Z,87.46
2022-12-24T18:40:32.888Z,87.39
2022-12-24T18:45:35.125Z,87.42
2022-12-24T18:50:38.386Z,87.39
2022-12-24T18:55:40.734Z,87.21
2022-12-24T19:00:43.151Z,87.29
2022-12-24T19:05:45.451Z,87.33
2022-12-24T19:10:47.688Z,87.13
2022-12-24T19:15:49.937Z,87.15
2022-12-24T19:20:52.165Z,87.20
2022-12-24T19:25:56.285Z,87.27
2022-12-24T19:31:06.919Z,87.19
2022-12-24T19:36:10.870Z,87.19
2022-12-24T19:41:15.611Z,87.23
2022-12-24T19:46:21.372Z,87.20
2022-12-24T19:51:24.689Z,86.94
2022-12-24T19:56:28.543Z,87.07
2022-12-24T20:01:33.817Z,87.15
2022-12-24T20:06:36.425Z,87.00
2022-12-24T20:11:38.871Z,86.80
2022-12-24T20:16:41.224Z,86.87
2022-12-24T20:21:43.683Z,86.81
2022-12-24T20:26:46.168Z,87.06
2022-12-24T20:31:48.543Z,86.95
2022-12-24T20:36:51.034Z,86.99
2022-12-24T20:41:53.347Z,86.90
2022-12-24T20:46:55.694Z,86.95
2022-12-24T20:51:58.687Z,86.94
2022-12-24T20:57:00.920Z,87.03
2022-12-24T21:02:03.270Z,86.94
2022-12-24T21:07:05.901Z,87.01
2022-12-24T21:12:31.947Z,86.85
2022-12-24T21:17:34.303Z,86.93
2022-12-24T21:22:36.496Z,87.00
2022-12-24T21:27:39.204Z,86.78
2022-12-24T21:32:41.399Z,86.92
2022-12-24T21:37:45.183Z,86.86
2022-12-24T21:42:47.420Z,86.71
2022-12-24T21:47:49.620Z,86.92
2022-12-24T21:53:11.782Z,86.92
2022-12-24T21:58:13.963Z,86.60
2022-12-24T22:09:06.828Z,86.55
2022-12-24T22:14:09.011Z,86.73
2022-12-24T22:19:11.409Z,86.39
2022-12-24T22:24:13.611Z,86.35
2022-12-24T22:29:15.856Z,86.26
2022-12-24T22:34:18.077Z,86.32
2022-12-24T22:39:21.245Z,86.34
2022-12-24T22:44:23.433Z,86.30
2022-12-24T22:49:25.733Z,85.97
2022-12-24T22:54:27.995Z,85.95
2022-12-24T22:59:30.191Z,85.88
2022-12-24T23:04:39.543Z,85.55
2022-12-24T23:09:41.909Z,85.26
2022-12-24T23:15:04.419Z,85.33
2022-12-24T23:20:07.886Z,85.11
2022-12-24T23:25:10.509Z,85.13
2022-12-24T23:30:12.986Z,84.79
2022-12-24T23:35:15.379Z,84.55
2022-12-24T23:40:17.712Z,84.57
2022-12-24T23:45:19.985Z,84.28
2022-12-24T23:50:22.251Z,83.96
2022-12-24T23:55:24.425Z,84.04
